• Join FlightAware (Why Join?)
  • Login
  • US Flag 
06:52PM EST


 

Airport Tracker/Info


-or-


 

Live Flight TrackerFlight Track Log ✈ GJS3649 ✈ 06-May-2013 ✈ KBDL - KIAD

Flight Track Log - Related Links

Times and Time Zones

All times are in EDT time to prevent confusion due to time zone crossing. See the GJS3649 flight status page for this flight to view local times or setup timezone preferences in your user account.

Time Position Orientation Groundspeed Altitude Reporting Facility
EDT Latitude Longitude Course Direction KTS MPH feet Rate Location/Type
08:49PM 41.9228 -72.6772 242° Southwest 143 165 1,000  Level Boston Center
08:50PM 41.9039 -72.7414 248° West 206 237 4,100 2,460 Climbing Boston Center
08:52PM 41.9006 -73.2252 265° West  Level FlightAware Approximate
08:52PM 41.9167 -72.9192 270° West  Level FlightAware Approximate
08:53PM 41.8741 -73.3519 236° Southwest  Level FlightAware Approximate
08:53PM 41.9089 -73.0650 270° West 311 358 11,700  Level Boston Center
08:54PM 41.8196 -73.4678 242° Southwest  Level FlightAware Approximate
08:55PM 41.8969 -73.3186 266° West 392 451 15,200  Level Boston Center
08:56PM 41.8267 -73.4736 239° Southwest 392 451 17,600 2,100 Climbing Boston Center
08:57PM 41.7608 -73.6061 236° Southwest 413 475 19,400 1,920 Climbing Boston Center
09:00PM 41.6113 -73.7128 225° Southwest  Level FlightAware Approximate
09:01PM 41.4142 -73.8889 225° Southwest 421 484 26,600  Level New York Center
09:03PM 41.2036 -74.0528 210° Southwest 446 513 28,000 240 Climbing New York Center
09:05PM 41.0882 -74.1942 238° Southwest  Level FlightAware Approximate
09:06PM 40.9578 -74.4747 238° Southwest 475 547 28,000  Level New York Center
09:07PM 40.8944 -74.6278 241° Southwest 470 541 28,000 -120 Level New York Center
09:09PM 40.7806 -74.9175 243° Southwest 465 535 27,700 -840 Descending New York Center
09:11PM 40.7164 -75.1393 249° West  Level FlightAware Approximate
09:12PM 40.5817 -75.3344 249° West 449 517 24,100  Level New York Center
09:13PM 40.5178 -75.4747 239° Southwest 449 517 22,900 -1,200 Descending New York Center
09:14PM 40.4519 -75.6094 237° Southwest 444 511 21,800 -1,200 Descending New York Center
09:15PM 40.3903 -75.7414 238° Southwest 439 505 20,600 -600 Descending New York Center
09:17PM 40.2508 -76.0225 237° Southwest 439 505 20,000 -240 Descending New York Center
09:18PM 40.1844 -76.1586 237° Southwest 439 505 20,000 -600 Level New York Center
09:19PM 40.1244 -76.2844 238° Southwest 434 499 18,900 -1,080 Descending New York Center
09:20PM 40.0733 -76.3942 239° Southwest 412 474 17,900 -960 Descending New York Center
09:21PM 40.0106 -76.5275 238° Southwest 402 463 17,000 -900 Descending New York Center
09:23PM 39.8833 -76.8000 239° Southwest 388 447 15,000 -780 Descending Potomac TRACON
09:24PM 39.8333 -76.9167 241° Southwest 379 436 14,400 -900 Descending Potomac TRACON
09:25PM 39.7667 -77.0333 233° Southwest 371 427 13,200 -1,200 Descending Potomac TRACON
09:26PM 39.7167 -77.1500 241° Southwest 375 432 12,000 -1,200 Descending Potomac TRACON
09:27PM 39.6667 -77.2667 241° Southwest 371 427 10,800 -1,140 Descending Potomac TRACON
09:28PM 39.6167 -77.3333 226° Southwest 319 367 9,800 -1,020 Descending Potomac TRACON
09:29PM 39.5500 -77.3500 191° South 259 298 8,800 -1,020 Descending Potomac TRACON
09:30PM 39.4667 -77.3500 180° South 260 299 7,800 -1,020 Descending Potomac TRACON
09:31PM 39.4000 -77.3667 191° South 256 295 6,800 -960 Descending Potomac TRACON
09:32PM 39.3333 -77.3667 180° South 247 284 5,900 -900 Descending Potomac TRACON
09:33PM 39.2667 -77.3667 180° South 246 283 5,100 -600 Descending Potomac TRACON
09:35PM 39.1335 -77.3500 180° South  Level FlightAware Approximate
09:35PM 39.1167 -77.3500 180° South 242 278 4,100  Level Potomac TRACON
09:36PM 39.0500 -77.3500 180° South 243 280 3,900 -600 Descending Potomac TRACON
09:37PM 38.9833 -77.3500 180° South 235 270 3,000 -480 Descending Potomac TRACON
09:38PM 38.9167 -77.3500 180° South 240 276 3,000 -60 Level Potomac TRACON
09:39PM 38.8667 -77.3667 195° South 230 265 2,900 -540 Descending Potomac TRACON
09:40PM 38.8000 -77.3667 180° South 208 239 2,000 -480 Descending Potomac TRACON
09:41PM 38.7833 -77.4167 247° West 199 229 2,000  Level Potomac TRACON